createdAt,value
2023-01-03T00:00:04.631Z,99935.38
2023-01-03T00:02:33.591Z,99941.50
2023-01-03T00:05:03.772Z,99944.16
2023-01-03T00:07:34.521Z,99945.69
2023-01-03T00:10:03.870Z,99952.41
2023-01-03T00:12:32.229Z,99957.06
2023-01-03T00:14:59.579Z,99969.31
2023-01-03T00:17:27.332Z,99971.19
2023-01-03T00:19:54.580Z,99974.94
2023-01-03T00:22:22.158Z,99978.81
2023-01-03T00:24:50.635Z,99981.69
2023-01-03T00:27:17.847Z,99973.00
2023-01-03T00:29:45.135Z,99972.53
2023-01-03T00:32:12.635Z,99977.31
2023-01-03T00:34:39.991Z,99980.56
2023-01-03T00:37:07.149Z,99972.72
2023-01-03T00:39:34.570Z,99971.56
2023-01-03T00:42:01.893Z,99981.88
2023-01-03T00:44:29.069Z,99986.09
2023-01-03T00:46:56.710Z,99980.50
2023-01-03T00:49:24.042Z,99985.13
2023-01-03T00:51:51.219Z,99975.31
2023-01-03T00:54:18.686Z,99982.31
2023-01-03T00:56:46.498Z,99976.97
2023-01-03T00:59:14.228Z,99976.00
2023-01-03T01:01:47.045Z,99985.59
2023-01-03T01:04:14.873Z,99989.66
2023-01-03T01:06:43.403Z,99990.91
2023-01-03T01:09:11.742Z,99990.34
2023-01-03T01:11:40.509Z,99993.97
2023-01-03T01:14:19.916Z,99998.81
2023-01-03T01:16:48.327Z,99996.50
2023-01-03T01:19:17.056Z,100002.91
2023-01-03T01:21:44.262Z,100003.00
2023-01-03T01:24:15.918Z,100005.94
2023-01-03T01:26:45.374Z,100005.94
2023-01-03T01:29:13.015Z,100017.34
2023-01-03T01:31:40.644Z,100005.44
2023-01-03T01:34:08.432Z,100005.28
2023-01-03T01:36:37.626Z,99992.66
2023-01-03T01:39:06.173Z,99997.59
2023-01-03T01:41:52.938Z,99990.84
2023-01-03T01:44:38.889Z,99989.69
2023-01-03T01:47:11.035Z,99986.88
2023-01-03T01:49:38.183Z,99993.53
2023-01-03T01:52:05.348Z,99984.78
2023-01-03T01:54:32.816Z,99982.66
2023-01-03T01:57:00.025Z,99985.94
2023-01-03T01:59:28.444Z,99984.31
2023-01-03T02:01:55.996Z,99989.09
2023-01-03T02:04:24.694Z,99992.84
2023-01-03T02:06:52.243Z,99998.94
2023-01-03T02:09:21.587Z,100006.09
2023-01-03T02:11:48.675Z,100015.25
2023-01-03T02:14:28.719Z,100009.94
2023-01-03T02:17:02.123Z,100017.53
2023-01-03T02:19:39.158Z,100015.84
2023-01-03T02:22:09.297Z,100015.06
2023-01-03T02:24:36.760Z,100017.69
2023-01-03T02:27:22.444Z,100015.50
2023-01-03T02:30:11.301Z,100005.56
2023-01-03T02:32:44.537Z,100010.09
2023-01-03T02:35:12.055Z,100018.34
2023-01-03T02:37:59.079Z,100011.22
2023-01-03T02:40:29.467Z,100007.94
2023-01-03T02:43:02.838Z,99999.44
2023-01-03T02:45:36.112Z,100007.41
2023-01-03T02:48:11.890Z,100016.91
2023-01-03T02:50:41.025Z,100019.31
2023-01-03T02:53:08.956Z,100012.56
2023-01-03T02:55:36.220Z,100015.28
2023-01-03T02:58:10.994Z,100010.72
2023-01-03T03:00:39.021Z,100001.91
2023-01-03T03:03:06.922Z,100007.25
2023-01-03T03:05:36.333Z,100010.34
2023-01-03T03:08:03.496Z,100019.69
2023-01-03T03:10:49.471Z,100013.47
2023-01-03T03:13:29.163Z,100015.25
2023-01-03T03:16:06.787Z,100034.97
2023-01-03T03:18:41.705Z,100032.88
2023-01-03T03:21:28.536Z,100034.66
2023-01-03T03:24:34.971Z,100037.75
2023-01-03T03:27:22.899Z,100039.31
2023-01-03T03:29:50.370Z,100032.69
2023-01-03T03:32:17.791Z,100020.00
2023-01-03T03:34:45.075Z,100026.00
2023-01-03T03:37:14.055Z,100028.59
2023-01-03T03:40:00.196Z,100034.34
2023-01-03T03:42:55.054Z,100028.66
2023-01-03T03:45:25.565Z,100027.44
2023-01-03T03:48:11.659Z,100028.34
2023-01-03T03:50:48.200Z,100022.38
2023-01-03T03:53:16.108Z,100024.09
2023-01-03T03:55:44.624Z,100030.66
2023-01-03T03:58:17.166Z,100024.44
2023-01-03T04:00:44.591Z,100022.19
2023-01-03T04:03:12.230Z,100021.84
2023-01-03T04:05:40.556Z,100023.28
2023-01-03T04:08:07.740Z,100022.66
2023-01-03T04:10:37.961Z,100026.38
2023-01-03T04:13:05.606Z,100022.09
2023-01-03T04:15:32.781Z,100030.50
2023-01-03T04:18:02.523Z,100036.22
2023-01-03T04:20:30.047Z,100043.41
2023-01-03T04:22:57.287Z,100045.38
2023-01-03T04:25:24.922Z,100045.22
2023-01-03T04:27:52.052Z,100051.75
2023-01-03T04:30:19.212Z,100047.41
2023-01-03T04:32:46.669Z,100041.66
2023-01-03T04:35:13.870Z,100042.06
2023-01-03T04:37:41.059Z,100048.50
2023-01-03T04:40:08.812Z,100044.88
2023-01-03T04:42:54.960Z,100051.19
2023-01-03T04:45:22.529Z,100042.75
2023-01-03T04:47:49.699Z,100059.69
2023-01-03T04:50:16.922Z,100058.97
2023-01-03T04:52:44.341Z,100063.09
2023-01-03T04:55:13.140Z,100064.47
2023-01-03T04:57:40.396Z,100068.25
2023-01-03T05:00:08.753Z,100074.34
2023-01-03T05:02:35.914Z,100067.25
2023-01-03T05:05:03.175Z,100075.25
2023-01-03T05:07:30.612Z,100075.16
2023-01-03T05:09:57.790Z,100077.22
2023-01-03T05:12:25.367Z,100067.94
2023-01-03T05:14:52.897Z,100070.25
2023-01-03T05:17:20.437Z,100080.72
2023-01-03T05:20:06.507Z,100080.19
2023-01-03T05:22:52.724Z,100079.16
2023-01-03T05:25:38.642Z,100077.09
2023-01-03T05:28:06.101Z,100082.66
2023-01-03T05:30:33.800Z,100081.84
2023-01-03T05:33:00.980Z,100091.37
2023-01-03T05:35:28.446Z,100089.97
2023-01-03T05:37:55.625Z,100098.13
2023-01-03T05:40:22.811Z,100096.16
2023-01-03T05:42:50.227Z,100109.75
2023-01-03T05:45:17.455Z,100108.44
2023-01-03T05:47:44.625Z,100122.50
2023-01-03T05:50:12.049Z,100107.16
2023-01-03T05:52:39.186Z,100117.97
2023-01-03T05:55:06.435Z,100115.41
2023-01-03T05:57:35.570Z,100115.69
2023-01-03T06:00:03.869Z,100111.94
2023-01-03T06:02:32.765Z,100125.59
2023-01-03T06:05:00.219Z,100122.69
2023-01-03T06:07:29.254Z,100123.72
2023-01-03T06:09:56.409Z,100131.13
2023-01-03T06:12:25.946Z,100127.12
2023-01-03T06:14:53.477Z,100125.31
2023-01-03T06:17:39.404Z,100132.69
2023-01-03T06:20:06.996Z,100128.81
2023-01-03T06:22:34.167Z,100131.06
2023-01-03T06:25:01.331Z,100131.34
2023-01-03T06:27:29.366Z,100134.47
2023-01-03T06:29:56.631Z,100128.47
2023-01-03T06:32:23.870Z,100128.28
2023-01-03T06:34:51.312Z,100131.75
2023-01-03T06:37:18.472Z,100138.06
2023-01-03T06:39:45.827Z,100133.72
2023-01-03T06:42:31.954Z,100141.34
2023-01-03T06:45:18.033Z,100143.75
2023-01-03T06:48:04.264Z,100147.22
2023-01-03T06:50:50.056Z,100145.63
2023-01-03T06:53:19.178Z,100155.13
2023-01-03T06:55:52.756Z,100160.59
2023-01-03T06:58:23.815Z,100159.03
2023-01-03T07:00:50.988Z,100161.47
2023-01-03T07:03:18.158Z,100165.66
2023-01-03T07:05:45.625Z,100169.53
2023-01-03T07:08:12.769Z,100172.56
2023-01-03T07:10:41.392Z,100165.19
2023-01-03T07:13:27.440Z,100172.31
2023-01-03T07:15:54.614Z,100180.91
2023-01-03T07:18:22.186Z,100181.75
2023-01-03T07:20:49.380Z,100194.44
2023-01-03T07:23:16.512Z,100191.22
2023-01-03T07:25:43.997Z,100191.75
2023-01-03T07:28:11.733Z,100184.88
2023-01-03T07:30:39.763Z,100193.03
2023-01-03T07:33:07.809Z,100188.38
2023-01-03T07:35:35.307Z,100194.66
2023-01-03T07:38:04.499Z,100191.31
2023-01-03T07:40:32.171Z,100195.22
2023-01-03T07:43:17.955Z,100199.41
2023-01-03T07:45:45.600Z,100204.44
2023-01-03T07:48:13.176Z,100202.97
2023-01-03T07:50:40.512Z,100212.12
2023-01-03T07:53:08.367Z,100211.69
2023-01-03T07:55:35.948Z,100200.41
2023-01-03T07:58:03.096Z,100215.50
2023-01-03T08:00:30.528Z,100218.47
2023-01-03T08:02:58.036Z,100224.59
2023-01-03T08:05:25.344Z,100229.78
2023-01-03T08:07:52.744Z,100226.47
2023-01-03T08:10:39.563Z,100222.25
2023-01-03T08:13:17.489Z,100229.56
2023-01-03T08:15:51.960Z,100230.78
2023-01-03T08:18:20.135Z,100230.00
2023-01-03T08:20:47.837Z,100232.75
2023-01-03T08:23:15.079Z,100238.66
2023-01-03T08:25:42.232Z,100234.41
2023-01-03T08:28:09.989Z,100236.38
2023-01-03T08:30:47.268Z,100239.81
2023-01-03T08:33:15.076Z,100239.25
2023-01-03T08:35:43.145Z,100238.44
2023-01-03T08:38:11.349Z,100248.56
2023-01-03T08:40:42.102Z,100242.19
2023-01-03T08:44:50.006Z,100240.84
2023-01-03T08:47:17.697Z,100240.84
2023-01-03T08:49:44.928Z,100250.19
2023-01-03T08:52:12.060Z,100257.50
2023-01-03T08:54:39.726Z,100259.09
2023-01-03T08:57:06.979Z,100258.91
2023-01-03T08:59:34.167Z,100255.88
2023-01-03T09:02:02.104Z,100251.00
2023-01-03T09:04:29.400Z,100262.03
2023-01-03T09:06:56.868Z,100255.47
2023-01-03T09:09:24.299Z,100269.25
2023-01-03T09:11:51.471Z,100272.94
2023-01-03T09:14:18.611Z,100266.97
2023-01-03T09:16:49.368Z,100268.06
2023-01-03T09:19:17.522Z,100267.31
2023-01-03T09:21:44.870Z,100271.91
2023-01-03T09:24:12.382Z,100275.34
2023-01-03T09:26:39.695Z,100266.91
2023-01-03T09:29:06.901Z,100271.56
2023-01-03T09:31:35.416Z,100268.50
2023-01-03T09:34:05.799Z,100269.69
2023-01-03T09:36:33.011Z,100276.72
2023-01-03T09:39:00.517Z,100272.47
2023-01-03T09:41:27.763Z,100268.81
2023-01-03T09:43:59.391Z,100267.63
2023-01-03T09:46:27.601Z,100271.34
2023-01-03T09:49:00.237Z,100264.31
2023-01-03T09:51:51.032Z,100270.41
2023-01-03T09:54:47.786Z,100257.97
2023-01-03T09:57:35.620Z,100260.94
2023-01-03T10:00:21.948Z,100260.28
2023-01-03T10:03:14.862Z,100264.88
2023-01-03T10:05:51.440Z,100265.84
2023-01-03T10:08:24.731Z,100266.56
2023-01-03T10:11:02.017Z,100263.13
2023-01-03T10:13:29.484Z,100267.16
2023-01-03T10:15:56.770Z,100268.13
2023-01-03T10:18:39.094Z,100258.16
2023-01-03T10:21:08.095Z,100255.69
2023-01-03T10:23:35.822Z,100251.94
2023-01-03T10:26:05.780Z,100257.37
2023-01-03T10:28:37.287Z,100258.56
2023-01-03T10:31:24.110Z,100251.00
2023-01-03T10:33:51.641Z,100252.59
2023-01-03T10:36:19.825Z,100247.44
2023-01-03T10:38:52.963Z,100255.34
2023-01-03T10:41:21.609Z,100250.22
2023-01-03T10:44:02.084Z,100255.09
2023-01-03T10:46:30.937Z,100249.41
2023-01-03T10:49:29.544Z,100245.81
2023-01-03T10:52:02.319Z,100243.41
2023-01-03T10:54:52.823Z,100243.66
2023-01-03T10:57:33.918Z,100242.03
2023-01-03T11:00:01.265Z,100244.25
2023-01-03T11:02:28.969Z,100239.31
2023-01-03T11:05:07.726Z,100244.28
2023-01-03T11:07:35.142Z,100234.97
2023-01-03T11:10:02.349Z,100238.88
2023-01-03T11:12:29.474Z,100225.09
2023-01-03T11:14:57.810Z,100233.37
2023-01-03T11:17:25.586Z,100218.09
2023-01-03T11:19:52.905Z,100213.31
2023-01-03T11:22:41.632Z,100208.12
2023-01-03T11:25:08.740Z,100220.81
2023-01-03T11:27:51.292Z,100226.09
2023-01-03T11:30:18.574Z,100226.91
2023-01-03T11:32:46.020Z,100224.09
2023-01-03T11:35:24.279Z,100231.62
2023-01-03T11:37:56.569Z,100231.50
2023-01-03T11:40:42.765Z,100227.13
2023-01-03T11:43:16.295Z,100220.69
2023-01-03T11:45:49.796Z,100224.56
2023-01-03T11:48:35.929Z,100221.44
2023-01-03T11:51:16.189Z,100216.91
2023-01-03T11:53:52.815Z,100212.28
2023-01-03T11:56:28.062Z,100216.44
2023-01-03T11:59:14.420Z,100215.34
2023-01-03T12:01:54.090Z,100210.47
2023-01-03T12:04:25.664Z,100217.31
2023-01-03T12:07:46.240Z,100211.94
2023-01-03T12:10:07.090Z,100213.47
2023-01-03T12:12:37.787Z,100213.53
2023-01-03T12:15:13.491Z,100220.53
2023-01-03T12:17:45.151Z,100209.63
2023-01-03T12:20:28.546Z,100199.69
2023-01-03T12:23:15.814Z,100202.72
2023-01-03T12:25:43.907Z,100195.97
2023-01-03T12:28:11.077Z,100200.34
2023-01-03T12:30:40.943Z,100189.53
2023-01-03T12:33:14.754Z,100192.94
2023-01-03T12:35:44.493Z,100185.91
2023-01-03T12:38:12.122Z,100189.34
2023-01-03T12:40:42.596Z,100191.97
2023-01-03T12:43:22.126Z,100195.00
2023-01-03T12:46:03.383Z,100191.41
2023-01-03T12:48:42.504Z,100208.75
2023-01-03T12:51:09.978Z,100194.78
2023-01-03T12:53:39.722Z,100203.59
2023-01-03T12:56:16.178Z,100205.63
2023-01-03T12:58:57.000Z,100193.37
2023-01-03T13:01:28.769Z,100195.50
2023-01-03T13:03:58.092Z,100191.88
2023-01-03T13:06:32.324Z,100194.72
2023-01-03T13:09:01.561Z,100189.19
2023-01-03T13:11:31.851Z,100197.09
2023-01-03T13:14:03.550Z,100200.22
2023-01-03T13:16:41.934Z,100208.28
2023-01-03T13:19:35.467Z,100201.56
2023-01-03T13:22:03.025Z,100198.00
2023-01-03T13:24:38.937Z,100200.53
2023-01-03T13:27:22.588Z,100198.50
2023-01-03T13:29:49.826Z,100195.00
2023-01-03T13:32:25.153Z,100200.44
2023-01-03T13:34:58.178Z,100201.16
2023-01-03T13:37:26.276Z,100206.13
2023-01-03T13:40:17.307Z,100200.75
2023-01-03T13:42:44.743Z,100198.78
2023-01-03T13:45:11.922Z,100198.88
2023-01-03T13:47:42.502Z,100196.22
2023-01-03T13:50:22.972Z,100195.66
2023-01-03T13:52:58.044Z,100205.78
2023-01-03T13:55:38.008Z,100210.28
2023-01-03T13:58:28.239Z,100201.59
2023-01-03T14:01:01.868Z,100212.19
2023-01-03T14:03:42.359Z,100214.94
2023-01-03T14:06:12.556Z,100217.06
2023-01-03T14:08:39.973Z,100218.41
2023-01-03T14:11:19.456Z,100219.47
2023-01-03T14:13:47.295Z,100233.13
2023-01-03T14:16:14.790Z,100221.84
2023-01-03T14:18:44.996Z,100225.66
2023-01-03T14:21:16.547Z,100228.28
2023-01-03T14:24:02.819Z,100220.94
2023-01-03T14:26:35.352Z,100221.62
2023-01-03T14:29:02.508Z,100229.66
2023-01-03T14:31:29.767Z,100229.69
2023-01-03T14:34:00.686Z,100229.28
2023-01-03T14:36:28.193Z,100220.56
2023-01-03T14:38:58.330Z,100224.63
2023-01-03T14:41:32.920Z,100227.25
2023-01-03T14:44:00.115Z,100231.91
2023-01-03T14:46:28.558Z,100226.97
2023-01-03T14:49:02.679Z,100228.69
2023-01-03T14:51:34.834Z,100235.59
2023-01-03T14:54:02.221Z,100235.59
2023-01-03T14:56:29.608Z,100240.97
2023-01-03T14:58:57.532Z,100238.19
2023-01-03T15:01:24.864Z,100242.38
2023-01-03T15:03:53.406Z,100241.09
2023-01-03T15:06:22.638Z,100238.94
2023-01-03T15:08:51.314Z,100238.34
2023-01-03T15:11:28.064Z,100254.47
2023-01-03T15:13:56.956Z,100248.25
2023-01-03T15:16:26.850Z,100251.63
2023-01-03T15:18:59.067Z,100254.94
2023-01-03T15:21:26.828Z,100256.63
2023-01-03T15:23:53.970Z,100255.47
2023-01-03T15:26:22.812Z,100260.81
2023-01-03T15:29:09.779Z,100253.78
2023-01-03T15:31:37.978Z,100268.22
2023-01-03T15:34:15.963Z,100271.19
2023-01-03T15:36:46.098Z,100272.00
2023-01-03T15:39:24.592Z,100276.00
2023-01-03T15:45:04.251Z,100273.09
2023-01-03T15:47:31.497Z,100280.91
2023-01-03T15:49:59.204Z,100287.84
2023-01-03T15:52:26.717Z,100294.44
2023-01-03T15:54:53.886Z,100299.47
2023-01-03T15:57:21.692Z,100297.47
2023-01-03T15:59:56.798Z,100305.28
2023-01-03T16:02:27.062Z,100308.47
2023-01-03T16:04:56.880Z,100304.06
2023-01-03T16:07:26.277Z,100309.56
2023-01-03T16:09:53.547Z,100302.56
2023-01-03T16:12:23.415Z,100297.03
2023-01-03T16:14:51.441Z,100303.44
2023-01-03T16:17:24.691Z,100310.97
2023-01-03T16:19:52.700Z,100314.97
2023-01-03T16:22:36.534Z,100318.28
2023-01-03T16:25:05.596Z,100332.50
2023-01-03T16:27:32.922Z,100325.03
2023-01-03T16:30:00.158Z,100323.16
2023-01-03T16:32:33.913Z,100321.75
2023-01-03T16:35:01.844Z,100316.00
2023-01-03T16:37:30.491Z,100311.53
2023-01-03T16:39:58.584Z,100319.97
2023-01-03T16:42:29.173Z,100308.16
2023-01-03T16:44:57.071Z,100327.69
2023-01-03T16:47:27.610Z,100323.66
2023-01-03T16:49:57.664Z,100323.81
2023-01-03T16:52:25.747Z,100316.97
2023-01-03T16:54:53.402Z,100319.44
2023-01-03T16:57:21.192Z,100331.41
2023-01-03T16:59:48.733Z,100338.16
2023-01-03T17:02:16.206Z,100335.87
2023-01-03T17:04:43.599Z,100331.38
2023-01-03T17:07:18.395Z,100339.16
2023-01-03T17:09:45.794Z,100342.19
2023-01-03T17:12:13.216Z,100349.59
2023-01-03T17:14:40.806Z,100352.69
2023-01-03T17:17:15.259Z,100350.34
2023-01-03T17:20:03.386Z,100350.41
2023-01-03T17:22:30.407Z,100353.44
2023-01-03T17:24:57.835Z,100358.94
2023-01-03T17:27:31.985Z,100365.09
2023-01-03T17:30:01.464Z,100365.19
2023-01-03T17:32:28.688Z,100356.50
2023-01-03T17:34:55.827Z,100365.38
2023-01-03T17:37:23.288Z,100360.38
2023-01-03T17:39:54.301Z,100357.97
2023-01-03T17:42:21.491Z,100371.66
2023-01-03T17:45:08.170Z,100348.56
2023-01-03T17:47:56.169Z,100358.16
2023-01-03T17:50:23.726Z,100371.97
2023-01-03T17:52:55.586Z,100370.56
2023-01-03T17:55:28.227Z,100368.97
2023-01-03T17:57:55.736Z,100370.78
2023-01-03T18:00:24.655Z,100380.75
2023-01-03T18:02:52.780Z,100381.38
2023-01-03T18:05:27.165Z,100383.03
2023-01-03T18:08:18.691Z,100374.53
2023-01-03T18:10:47.467Z,100381.97
2023-01-03T18:13:19.564Z,100380.22
2023-01-03T18:15:46.778Z,100376.16
2023-01-03T18:18:15.120Z,100372.84
2023-01-03T18:20:42.601Z,100378.88
2023-01-03T18:23:13.887Z,100385.38
2023-01-03T18:25:41.089Z,100387.31
2023-01-03T18:28:08.505Z,100379.00
2023-01-03T18:30:35.711Z,100383.06
2023-01-03T18:33:02.888Z,100380.22
2023-01-03T18:35:37.547Z,100389.75
2023-01-03T18:38:05.660Z,100397.06
2023-01-03T18:40:33.103Z,100385.69
2023-01-03T18:43:12.762Z,100391.25
2023-01-03T18:45:41.203Z,100388.34
2023-01-03T18:48:12.532Z,100383.59
2023-01-03T18:50:41.329Z,100393.81
2023-01-03T18:53:09.847Z,100396.47
2023-01-03T18:55:37.219Z,100400.34
2023-01-03T18:58:24.891Z,100396.06
2023-01-03T19:00:52.038Z,100397.56
2023-01-03T19:03:20.614Z,100394.31
2023-01-03T19:05:48.027Z,100390.31
2023-01-03T19:08:15.679Z,100394.00
2023-01-03T19:10:43.597Z,100393.03
2023-01-03T19:13:18.663Z,100399.56
2023-01-03T19:15:46.244Z,100392.69
2023-01-03T19:18:13.391Z,100396.53
2023-01-03T19:20:40.540Z,100394.16
2023-01-03T19:23:08.175Z,100403.06
2023-01-03T19:25:35.437Z,100399.75
2023-01-03T19:28:02.882Z,100405.97
2023-01-03T19:30:37.227Z,100412.59
2023-01-03T19:33:12.228Z,100408.28
2023-01-03T19:35:39.645Z,100416.00
2023-01-03T19:38:09.753Z,100403.03
2023-01-03T19:40:38.322Z,100406.44
2023-01-03T19:43:06.618Z,100416.22
2023-01-03T19:45:34.488Z,100410.75
2023-01-03T19:48:14.047Z,100407.88
2023-01-03T19:50:42.125Z,100420.75
2023-01-03T19:53:09.723Z,100418.50
2023-01-03T19:55:38.509Z,100427.19
2023-01-03T19:58:15.586Z,100425.91
2023-01-03T20:00:43.362Z,100414.00
2023-01-03T20:03:15.862Z,100413.44
2023-01-03T20:05:43.829Z,100417.88
2023-01-03T20:08:13.103Z,100420.03
2023-01-03T20:10:41.643Z,100415.72
2023-01-03T20:13:11.287Z,100407.91
2023-01-03T20:15:41.465Z,100408.25
2023-01-03T20:18:29.501Z,100411.13
2023-01-03T20:21:01.840Z,100407.38
2023-01-03T20:23:30.507Z,100415.44
2023-01-03T20:25:59.511Z,100417.47
2023-01-03T20:28:29.599Z,100418.78
2023-01-03T20:30:57.587Z,100423.66
2023-01-03T20:33:27.353Z,100426.69
2023-01-03T20:36:11.262Z,100426.34
2023-01-03T20:38:45.821Z,100421.94
2023-01-03T20:41:14.850Z,100426.91
2023-01-03T20:43:43.314Z,100421.00
2023-01-03T20:46:13.823Z,100422.44
2023-01-03T20:48:41.683Z,100416.25
2023-01-03T20:51:13.383Z,100415.38
2023-01-03T20:53:43.015Z,100422.53
2023-01-03T20:56:14.749Z,100425.38
2023-01-03T20:58:41.935Z,100413.81
2023-01-03T21:01:09.302Z,100414.91
2023-01-03T21:03:37.929Z,100405.12
2023-01-03T21:06:22.724Z,100407.69
2023-01-03T21:08:57.154Z,100403.41
2023-01-03T21:11:28.445Z,100402.16
2023-01-03T21:13:57.894Z,100397.69
2023-01-03T21:16:29.795Z,100397.94
2023-01-03T21:19:01.737Z,100396.69
2023-01-03T21:21:30.654Z,100393.13
2023-01-03T21:23:59.031Z,100397.03
2023-01-03T21:26:26.598Z,100396.25
2023-01-03T21:28:54.636Z,100389.75
2023-01-03T21:31:23.299Z,100393.91
2023-01-03T21:33:51.474Z,100398.00
2023-01-03T21:36:23.283Z,100400.69
2023-01-03T21:38:51.199Z,100401.88
2023-01-03T21:41:19.593Z,100409.25
2023-01-03T21:43:46.887Z,100407.44
2023-01-03T21:46:18.276Z,100411.62
2023-01-03T21:48:46.182Z,100416.81
2023-01-03T21:51:14.340Z,100413.31
2023-01-03T21:53:41.923Z,100410.72
2023-01-03T21:56:12.880Z,100415.63
2023-01-03T21:58:41.486Z,100411.50
2023-01-03T22:01:09.633Z,100419.47
2023-01-03T22:03:55.881Z,100415.72
2023-01-03T22:06:23.191Z,100416.97
2023-01-03T22:08:50.603Z,100421.75
2023-01-03T22:11:19.019Z,100425.44
2023-01-03T22:13:47.616Z,100426.53
2023-01-03T22:16:15.253Z,100420.56
2023-01-03T22:18:42.469Z,100423.66
2023-01-03T22:21:10.578Z,100428.72
2023-01-03T22:23:38.440Z,100430.50
2023-01-03T22:26:11.247Z,100431.31
2023-01-03T22:28:40.355Z,100424.31
2023-01-03T22:31:11.413Z,100431.16
2023-01-03T22:33:38.994Z,100425.78
2023-01-03T22:36:06.433Z,100427.53
2023-01-03T22:38:33.613Z,100430.97
2023-01-03T22:41:02.819Z,100429.12
2023-01-03T22:43:32.116Z,100436.81
2023-01-03T22:46:01.018Z,100430.59
2023-01-03T22:48:28.498Z,100426.84
2023-01-03T22:50:55.653Z,100436.94
2023-01-03T22:53:22.842Z,100436.41
2023-01-03T22:55:50.537Z,100443.53
2023-01-03T22:58:17.738Z,100441.34
2023-01-03T23:00:45.897Z,100431.25
2023-01-03T23:03:13.414Z,100436.53
2023-01-03T23:05:40.570Z,100434.63
2023-01-03T23:08:07.725Z,100445.41
2023-01-03T23:10:35.217Z,100431.72
2023-01-03T23:13:03.685Z,100442.91
2023-01-03T23:15:31.577Z,100451.06
2023-01-03T23:17:59.404Z,100442.94
2023-01-03T23:20:29.658Z,100434.47
2023-01-03T23:22:59.987Z,100433.34
2023-01-03T23:25:28.948Z,100431.72
2023-01-03T23:27:56.221Z,100429.00
2023-01-03T23:30:23.588Z,100422.84
2023-01-03T23:32:51.066Z,100423.50
2023-01-03T23:35:18.749Z,100415.94
2023-01-03T23:37:48.902Z,100417.44
2023-01-03T23:40:16.591Z,100402.87
2023-01-03T23:42:43.887Z,100411.44
2023-01-03T23:45:11.206Z,100409.59
2023-01-03T23:47:40.872Z,100403.84
2023-01-03T23:50:08.309Z,100408.47
2023-01-03T23:52:35.564Z,100418.47
2023-01-03T23:55:08.683Z,100419.34
2023-01-03T23:57:39.945Z,100419.87
